createdAt,value
2018-12-31T16:02:25.588Z,91.74
2018-12-31T16:05:30.588Z,91.98
2018-12-31T16:08:33.994Z,92.31
2018-12-31T16:11:37.357Z,92.38
2018-12-31T16:14:40.682Z,92.76
2018-12-31T16:17:44.090Z,92.56
2018-12-31T16:20:47.484Z,92.83
2018-12-31T16:23:51.351Z,92.87
2018-12-31T16:26:54.934Z,92.74
2018-12-31T16:29:58.256Z,92.73
2018-12-31T16:33:01.593Z,92.80
2018-12-31T16:36:04.969Z,92.92
2018-12-31T16:39:10.556Z,93.16
2018-12-31T16:42:13.915Z,93.05
2018-12-31T16:45:17.313Z,92.97
2018-12-31T16:48:21.054Z,93.41
2018-12-31T16:51:31.169Z,93.80
2018-12-31T16:54:34.625Z,93.66
2018-12-31T16:57:37.993Z,93.66
2018-12-31T17:00:42.889Z,94.09
2018-12-31T17:03:46.313Z,94.42
2018-12-31T17:06:49.663Z,94.87
2018-12-31T17:09:53.061Z,94.80
2018-12-31T17:12:59.449Z,94.86
2018-12-31T17:16:02.769Z,94.62
2018-12-31T17:19:06.161Z,95.11
2018-12-31T17:22:09.504Z,95.07
2018-12-31T17:25:12.904Z,95.16
2018-12-31T17:28:17.881Z,95.24
2018-12-31T17:31:24.557Z,95.46
2018-12-31T17:34:27.958Z,95.97
2018-12-31T17:37:31.289Z,95.79
2018-12-31T17:40:36.243Z,96.03
2018-12-31T17:43:39.693Z,96.17
2018-12-31T17:46:43.095Z,96.29
2018-12-31T17:49:46.444Z,96.46
2018-12-31T17:52:51.708Z,96.73
2018-12-31T17:55:55.032Z,96.89
2018-12-31T17:59:00.435Z,97.06
2018-12-31T18:02:03.774Z,97.13
2018-12-31T18:05:08.655Z,97.48
2018-12-31T18:08:12.120Z,97.41
2018-12-31T18:11:15.492Z,97.30
2018-12-31T18:14:39.945Z,97.41
2018-12-31T18:17:43.571Z,97.54
2018-12-31T18:24:36.780Z,97.75
2018-12-31T18:27:40.098Z,97.96
2018-12-31T18:30:43.458Z,97.98
2018-12-31T18:33:48.148Z,97.88
2018-12-31T18:36:51.558Z,97.84
2018-12-31T18:39:57.980Z,97.99
2018-12-31T18:43:01.499Z,98.12
2018-12-31T18:46:04.872Z,98.25
2018-12-31T18:49:10.368Z,98.42
2018-12-31T18:52:13.800Z,98.41
2018-12-31T18:55:17.178Z,98.36
2018-12-31T18:58:20.636Z,98.45
2018-12-31T19:01:44.051Z,98.51
2018-12-31T19:04:46.794Z,98.53
2018-12-31T19:07:50.232Z,98.47
2018-12-31T19:10:53.894Z,98.43
2018-12-31T19:13:57.480Z,98.39
2018-12-31T19:17:03.567Z,98.42
2018-12-31T19:20:07.516Z,98.32
2018-12-31T19:23:10.908Z,98.28
2018-12-31T19:26:14.274Z,98.48
2018-12-31T19:29:30.180Z,98.49
2018-12-31T19:32:33.564Z,98.55
2018-12-31T19:35:37.020Z,98.75
2018-12-31T19:38:40.808Z,99.05
2018-12-31T19:41:44.427Z,98.95
